Time;durP1;ratioP1;P1;durP2;ratioP2;P2;SDS_P1;SDS_P2;PMS_P1;PMS_P2;Temp;Humidity;BMP_temperature;BMP_pressure;BME280_temperature;BME280_humidity;BME280_pressure;Samples;Min_cycle;Max_cycle;Signal;HPM_P1;HPM_P2
2024/01/21 00:00:56;;;;;;;78.93;34.10;;;;;;;;;;10101874;29;20112;-82
2024/01/21 00:05:57;;;;;;;81.70;36.60;;;;;;;;;;10127053;29;20037;-83
2024/01/21 00:10:58;;;;;;;78.17;36.13;;;;;;;;;;10116752;29;20049;-83
2024/01/21 00:16:00;;;;;;;77.43;36.43;;;;;;;;;;10114786;29;20096;-85
2024/01/21 00:21:01;;;;;;;87.07;38.80;;;;;;;;;;10154303;24;20070;-82
2024/01/21 00:26:02;;;;;;;78.90;36.30;;;;;;;;;;10136597;29;20536;-84
2024/01/21 00:31:03;;;;;;;82.83;35.90;;;;;;;;;;10150373;29;20087;-84
2024/01/21 00:36:04;;;;;;;65.43;30.93;;;;;;;;;;10164093;29;20090;-81
2024/01/21 00:41:06;;;;;;;70.80;31.07;;;;;;;;;;10152291;29;20577;-83
2024/01/21 00:46:07;;;;;;;63.47;28.80;;;;;;;;;;10132503;29;20036;-82
2024/01/21 00:51:08;;;;;;;59.00;25.73;;;;;;;;;;10124678;29;20052;-82
2024/01/21 00:56:09;;;;;;;62.23;25.90;;;;;;;;;;10138293;29;20039;-82
2024/01/21 01:01:10;;;;;;;49.63;22.10;;;;;;;;;;10146644;29;20123;-80
2024/01/21 01:06:11;;;;;;;55.10;21.30;;;;;;;;;;10127069;29;20128;-81
2024/01/21 01:11:12;;;;;;;54.07;25.83;;;;;;;;;;10128250;29;20195;-83
2024/01/21 01:16:13;;;;;;;51.60;21.77;;;;;;;;;;10124965;29;20155;-83
2024/01/21 01:21:14;;;;;;;53.77;22.23;;;;;;;;;;10123951;29;20064;-81
2024/01/21 01:26:15;;;;;;;48.23;20.97;;;;;;;;;;10126528;29;20092;-84
2024/01/21 01:31:24;;;;;;;55.20;25.67;;;;;;;;;;10137216;29;20398;-82
2024/01/21 01:36:25;;;;;;;60.40;28.90;;;;;;;;;;10138708;29;20405;-80
2024/01/21 01:41:26;;;;;;;61.10;26.03;;;;;;;;;;10131688;29;20032;-81
2024/01/21 01:46:27;;;;;;;60.37;29.33;;;;;;;;;;10138157;29;20039;-84
2024/01/21 01:51:29;;;;;;;59.27;28.50;;;;;;;;;;10129689;29;20587;-85
2024/01/21 01:56:30;;;;;;;67.13;29.93;;;;;;;;;;10130655;29;20139;-82
2024/01/21 02:01:31;;;;;;;60.30;26.27;;;;;;;;;;10129226;29;20147;-81
2024/01/21 02:06:32;;;;;;;63.47;28.43;;;;;;;;;;10134486;29;20189;-82
2024/01/21 02:11:33;;;;;;;59.80;27.77;;;;;;;;;;10134734;29;20500;-83
2024/01/21 02:16:34;;;;;;;63.97;28.93;;;;;;;;;;10140980;29;20044;-84
2024/01/21 02:21:35;;;;;;;63.97;28.70;;;;;;;;;;10144838;29;20167;-82
2024/01/21 02:26:36;;;;;;;60.57;28.03;;;;;;;;;;10132345;29;20028;-82
2024/01/21 02:31:43;;;;;;;60.27;28.63;;;;;;;;;;10118830;29;20139;-81
2024/01/21 02:36:44;;;;;;;56.67;26.17;;;;;;;;;;10130633;29;20614;-82
2024/01/21 02:41:45;;;;;;;57.77;27.20;;;;;;;;;;10138122;29;20107;-82
2024/01/21 02:46:46;;;;;;;56.43;26.13;;;;;;;;;;10129516;29;20036;-81
2024/01/21 02:51:47;;;;;;;59.07;28.17;;;;;;;;;;10126396;29;20052;-82
2024/01/21 02:56:49;;;;;;;62.03;29.53;;;;;;;;;;10133167;29;20123;-82
2024/01/21 03:01:50;;;;;;;59.63;28.60;;;;;;;;;;10132987;29;20020;-84
2024/01/21 03:06:51;;;;;;;64.27;31.87;;;;;;;;;;10143442;29;20400;-82
2024/01/21 03:11:52;;;;;;;59.40;28.57;;;;;;;;;;10141054;29;20043;-82
2024/01/21 03:16:59;;;;;;;62.70;27.77;;;;;;;;;;10121409;29;20108;-82
2024/01/21 03:22:00;;;;;;;64.77;27.60;;;;;;;;;;10142882;29;20100;-82
2024/01/21 03:27:01;;;;;;;66.20;28.60;;;;;;;;;;10125667;29;20028;-84
2024/01/21 03:32:02;;;;;;;65.57;29.87;;;;;;;;;;10127697;29;20071;-81
2024/01/21 03:37:03;;;;;;;74.77;31.67;;;;;;;;;;10139853;29;20043;-82
2024/01/21 03:42:05;;;;;;;57.60;26.60;;;;;;;;;;10130916;29;20124;-82
2024/01/21 03:47:06;;;;;;;61.60;25.90;;;;;;;;;;10145795;29;20192;-82
2024/01/21 03:52:07;;;;;;;55.10;25.77;;;;;;;;;;10135551;29;20044;-81
2024/01/21 03:57:08;;;;;;;52.97;25.60;;;;;;;;;;10139594;29;20032;-81
2024/01/21 04:02:09;;;;;;;58.43;26.30;;;;;;;;;;10135229;29;20063;-83
2024/01/21 04:07:10;;;;;;;56.87;25.10;;;;;;;;;;10152014;29;20120;-81
2024/01/21 04:12:12;;;;;;;53.30;25.53;;;;;;;;;;10134188;29;20151;-82
2024/01/21 04:17:14;;;;;;;50.57;23.00;;;;;;;;;;10141898;29;20108;-83
2024/01/21 04:22:21;;;;;;;55.90;24.40;;;;;;;;;;10136797;29;20151;-85
2024/01/21 04:27:22;;;;;;;48.70;21.20;;;;;;;;;;10139472;29;20037;-81
2024/01/21 04:32:23;;;;;;;48.20;22.33;;;;;;;;;;10137347;29;20046;-81
2024/01/21 04:37:24;;;;;;;45.30;22.17;;;;;;;;;;10126418;29;20819;-82
2024/01/21 04:42:26;;;;;;;50.50;24.40;;;;;;;;;;10141136;29;20496;-82
2024/01/21 04:47:27;;;;;;;51.57;25.67;;;;;;;;;;10135213;29;20040;-81
2024/01/21 04:52:28;;;;;;;51.60;23.57;;;;;;;;;;10132216;29;20086;-81
2024/01/21 04:57:29;;;;;;;55.60;25.73;;;;;;;;;;10138587;29;20047;-83
2024/01/21 05:02:30;;;;;;;50.57;23.77;;;;;;;;;;10130437;29;20126;-87
2024/01/21 05:07:31;;;;;;;53.40;24.23;;;;;;;;;;10140070;29;20553;-83
2024/01/21 05:12:32;;;;;;;57.57;25.97;;;;;;;;;;10113049;29;20045;-82
2024/01/21 05:17:33;;;;;;;49.70;24.43;;;;;;;;;;10133109;29;20132;-81
2024/01/21 05:22:34;;;;;;;89.80;46.67;;;;;;;;;;10137140;29;20139;-84
2024/01/21 05:27:35;;;;;;;75.20;40.70;;;;;;;;;;10127262;29;20114;-84
2024/01/21 05:32:46;;;;;;;107.40;48.50;;;;;;;;;;10133501;29;20089;-82
2024/01/21 05:37:51;;;;;;;62.53;31.13;;;;;;;;;;10131297;29;20032;-81
2024/01/21 05:42:52;;;;;;;66.70;29.63;;;;;;;;;;10130686;29;20453;-84
2024/01/21 05:48:00;;;;;;;168.20;82.00;;;;;;;;;;10135434;29;20147;-84
2024/01/21 05:53:04;;;;;;;536.07;236.27;;;;;;;;;;10124913;29;20128;-83
2024/01/21 05:58:06;;;;;;;98.80;42.83;;;;;;;;;;10133708;29;20096;-83
2024/01/21 06:03:07;;;;;;;94.40;42.70;;;;;;;;;;10127191;29;20139;-81
2024/01/21 06:08:08;;;;;;;97.90;44.97;;;;;;;;;;10136609;29;20043;-82
2024/01/21 06:13:09;;;;;;;99.37;44.97;;;;;;;;;;10137129;29;20127;-81
2024/01/21 06:18:10;;;;;;;96.03;42.67;;;;;;;;;;10128974;29;20032;-81
2024/01/21 06:23:11;;;;;;;103.53;47.90;;;;;;;;;;10138758;29;20223;-80
2024/01/21 06:28:12;;;;;;;69.40;33.97;;;;;;;;;;10142247;29;20083;-83
2024/01/21 06:33:13;;;;;;;73.63;37.20;;;;;;;;;;10138599;29;20044;-81
2024/01/21 06:38:14;;;;;;;80.67;38.57;;;;;;;;;;10142521;29;20055;-82
2024/01/21 06:43:15;;;;;;;118.63;49.77;;;;;;;;;;10142458;29;20127;-82
2024/01/21 06:48:16;;;;;;;105.13;45.87;;;;;;;;;;10138641;29;20024;-83
2024/01/21 06:53:18;;;;;;;92.60;45.17;;;;;;;;;;10153553;29;20036;-82
2024/01/21 06:58:19;;;;;;;57.77;29.93;;;;;;;;;;10140024;29;20123;-80
2024/01/21 07:03:20;;;;;;;60.30;29.57;;;;;;;;;;10142307;29;20084;-81
2024/01/21 07:08:21;;;;;;;71.40;33.07;;;;;;;;;;10142895;29;20059;-81
2024/01/21 07:13:22;;;;;;;66.63;31.90;;;;;;;;;;10128498;29;20045;-80
2024/01/21 07:23:43;;;;;;;66.90;34.70;;;;;;;;;;10151951;29;20056;-79
2024/01/21 07:28:44;;;;;;;61.10;31.10;;;;;;;;;;10144574;29;20033;-80
2024/01/21 07:33:45;;;;;;;66.27;31.57;;;;;;;;;;10131745;29;20415;-81
2024/01/21 07:38:46;;;;;;;70.57;34.27;;;;;;;;;;10142069;29;20115;-84
2024/01/21 07:43:47;;;;;;;197.67;88.83;;;;;;;;;;10138827;29;20119;-83
2024/01/21 07:48:48;;;;;;;101.00;53.97;;;;;;;;;;10141670;29;20112;-83
2024/01/21 07:53:49;;;;;;;88.30;44.57;;;;;;;;;;10142454;29;20040;-81
2024/01/21 07:58:50;;;;;;;78.00;41.67;;;;;;;;;;10139309;29;20024;-79
2024/01/21 08:03:51;;;;;;;70.00;37.33;;;;;;;;;;10136745;29;20651;-82
2024/01/21 08:08:52;;;;;;;83.03;36.97;;;;;;;;;;10133260;29;20036;-81
2024/01/21 08:13:53;;;;;;;58.27;31.23;;;;;;;;;;10126860;29;20071;-82
2024/01/21 08:18:54;;;;;;;68.33;35.47;;;;;;;;;;10133377;29;20039;-82
2024/01/21 08:23:55;;;;;;;63.43;32.83;;;;;;;;;;10110942;29;20597;-80
2024/01/21 08:28:57;;;;;;;59.00;28.30;;;;;;;;;;10098645;29;20406;-79
2024/01/21 08:33:59;;;;;;;56.20;27.30;;;;;;;;;;10094546;29;20473;-80
2024/01/21 08:39:00;;;;;;;51.27;26.40;;;;;;;;;;10098412;29;20088;-82
2024/01/21 08:44:01;;;;;;;79.60;48.30;;;;;;;;;;10089525;29;20185;-83
2024/01/21 08:49:02;;;;;;;128.80;61.40;;;;;;;;;;10072117;29;20033;-80
2024/01/21 08:54:03;;;;;;;106.57;48.93;;;;;;;;;;10087316;29;20037;-84
2024/01/21 08:59:04;;;;;;;55.53;27.33;;;;;;;;;;10108640;29;20099;-80
2024/01/21 09:04:05;;;;;;;61.73;29.50;;;;;;;;;;10099022;29;20032;-80
2024/01/21 09:09:06;;;;;;;88.53;38.50;;;;;;;;;;10088640;29;20895;-80
2024/01/21 09:14:07;;;;;;;108.63;59.97;;;;;;;;;;10077960;29;20073;-82
2024/01/21 09:19:08;;;;;;;71.83;35.83;;;;;;;;;;10104602;29;20029;-82
2024/01/21 09:24:11;;;;;;;83.83;39.17;;;;;;;;;;10121045;29;20171;-84
2024/01/21 09:29:12;;;;;;;69.63;34.17;;;;;;;;;;10131863;29;20051;-83
2024/01/21 09:34:13;;;;;;;71.13;33.63;;;;;;;;;;10139756;29;20112;-82
2024/01/21 09:39:14;;;;;;;60.43;28.60;;;;;;;;;;10138197;29;20032;-81
2024/01/21 09:44:19;;;;;;;60.63;30.20;;;;;;;;;;10127828;29;20424;-82
2024/01/21 09:49:21;;;;;;;51.60;24.53;;;;;;;;;;10113739;29;20405;-80
2024/01/21 09:54:30;;;;;;;51.40;25.07;;;;;;;;;;10126489;29;20056;-80
2024/01/21 09:59:39;;;;;;;43.23;23.37;;;;;;;;;;10129556;29;20351;-81
2024/01/21 10:04:40;;;;;;;59.00;28.43;;;;;;;;;;10127210;29;20084;-80
2024/01/21 10:09:41;;;;;;;56.90;28.67;;;;;;;;;;10133946;29;20055;-85
2024/01/21 10:14:42;;;;;;;61.27;30.67;;;;;;;;;;10122196;29;20404;-83
2024/01/21 10:19:44;;;;;;;116.90;51.63;;;;;;;;;;10132425;29;20032;-81
2024/01/21 10:24:52;;;;;;;49.57;24.07;;;;;;;;;;10132034;29;20119;-82
2024/01/21 10:29:53;;;;;;;45.13;22.83;;;;;;;;;;10135528;29;20485;-80
2024/01/21 10:34:54;;;;;;;51.73;25.53;;;;;;;;;;10128748;29;20074;-84
2024/01/21 10:39:56;;;;;;;57.37;26.50;;;;;;;;;;10134926;29;20125;-80
2024/01/21 10:44:57;;;;;;;47.30;23.40;;;;;;;;;;10121588;29;20401;-80
2024/01/21 10:49:59;;;;;;;80.30;38.73;;;;;;;;;;10146382;29;20049;-82
2024/01/21 10:55:00;;;;;;;84.87;44.50;;;;;;;;;;10123410;29;20059;-80
2024/01/21 11:00:03;;;;;;;53.33;28.73;;;;;;;;;;10137251;29;20020;-79
2024/01/21 11:05:05;;;;;;;45.47;24.33;;;;;;;;;;10140168;29;20060;-82
2024/01/21 11:10:06;;;;;;;90.40;41.50;;;;;;;;;;10132374;29;20047;-82
2024/01/21 11:15:28;;;;;;;78.47;35.13;;;;;;;;;;10141916;29;20028;-80
2024/01/21 11:20:29;;;;;;;100.03;43.60;;;;;;;;;;10135808;29;20052;-80
2024/01/21 11:25:33;;;;;;;74.50;35.60;;;;;;;;;;10131244;29;20119;-81
2024/01/21 11:30:35;;;;;;;52.37;30.10;;;;;;;;;;10137067;29;20059;-80
2024/01/21 11:35:37;;;;;;;54.90;27.23;;;;;;;;;;10142660;29;20099;-80
2024/01/21 11:40:44;;;;;;;46.80;24.77;;;;;;;;;;10142857;29;20401;-81
2024/01/21 11:45:45;;;;;;;48.23;26.83;;;;;;;;;;10136072;29;20047;-81
2024/01/21 11:50:47;;;;;;;43.13;22.30;;;;;;;;;;10148952;29;20123;-80
2024/01/21 11:55:48;;;;;;;45.33;24.97;;;;;;;;;;10138562;29;20043;-86
2024/01/21 12:00:49;;;;;;;54.40;25.37;;;;;;;;;;10135867;29;20032;-79
2024/01/21 12:05:59;;;;;;;51.13;23.60;;;;;;;;;;10131908;29;20497;-79
2024/01/21 12:11:00;;;;;;;49.57;25.17;;;;;;;;;;10133121;29;20040;-81
2024/01/21 12:16:02;;;;;;;52.07;27.13;;;;;;;;;;10138865;29;20035;-79
2024/01/21 12:21:04;;;;;;;51.43;25.77;;;;;;;;;;10130393;29;20116;-79
2024/01/21 12:26:05;;;;;;;57.40;31.20;;;;;;;;;;10135258;29;20028;-80
2024/01/21 12:31:06;;;;;;;49.77;26.20;;;;;;;;;;10139371;29;20504;-81
2024/01/21 12:36:07;;;;;;;44.03;23.17;;;;;;;;;;10136362;29;20052;-80
2024/01/21 12:41:09;;;;;;;71.40;35.07;;;;;;;;;;10098025;23;20069;-82
2024/01/21 12:46:11;;;;;;;53.87;28.43;;;;;;;;;;10078504;29;20453;-77
2024/01/21 12:51:14;;;;;;;39.50;22.67;;;;;;;;;;10073413;29;20045;-75
2024/01/21 12:56:22;;;;;;;42.90;24.77;;;;;;;;;;10082140;29;20719;-79
2024/01/21 13:01:23;;;;;;;58.43;30.57;;;;;;;;;;10081878;29;20058;-80
2024/01/21 13:06:24;;;;;;;39.30;21.03;;;;;;;;;;10090084;29;20033;-79
2024/01/21 13:11:26;;;;;;;41.53;20.17;;;;;;;;;;10084523;29;20160;-78
2024/01/21 13:16:27;;;;;;;34.47;17.47;;;;;;;;;;10074937;29;20393;-82
2024/01/21 13:21:28;;;;;;;33.00;16.57;;;;;;;;;;10075340;29;20209;-80
2024/01/21 13:26:29;;;;;;;265.83;118.67;;;;;;;;;;10093127;29;20097;-79
2024/01/21 13:31:32;;;;;;;438.70;194.63;;;;;;;;;;10074150;29;20050;-80
2024/01/21 13:36:35;;;;;;;217.30;83.60;;;;;;;;;;10108173;29;20028;-79
2024/01/21 13:41:36;;;;;;;127.00;55.03;;;;;;;;;;10116721;29;20052;-82
2024/01/21 13:46:37;;;;;;;256.30;112.17;;;;;;;;;;10131578;29;20520;-79
2024/01/21 13:51:38;;;;;;;120.67;55.70;;;;;;;;;;10124244;29;20534;-79
2024/01/21 13:56:39;;;;;;;113.87;49.07;;;;;;;;;;10133062;29;20156;-79
2024/01/21 14:01:40;;;;;;;128.57;55.90;;;;;;;;;;10105002;29;20469;-79
2024/01/21 14:06:41;;;;;;;255.70;102.23;;;;;;;;;;10106726;29;20485;-78
2024/01/21 14:11:43;;;;;;;219.40;93.47;;;;;;;;;;10107743;29;20075;-77
2024/01/21 14:16:45;;;;;;;100.43;43.63;;;;;;;;;;10105057;29;20470;-77
2024/01/21 14:21:46;;;;;;;75.90;36.13;;;;;;;;;;10132968;29;20040;-78
2024/01/21 14:26:47;;;;;;;79.87;34.93;;;;;;;;;;10111590;29;20036;-79
2024/01/21 14:31:48;;;;;;;93.63;43.90;;;;;;;;;;10119353;29;20599;-80
2024/01/21 14:36:56;;;;;;;354.70;169.60;;;;;;;;;;10100379;29;20037;-78
2024/01/21 14:41:57;;;;;;;159.77;70.70;;;;;;;;;;10111329;29;20119;-80
2024/01/21 14:46:58;;;;;;;131.50;57.60;;;;;;;;;;10110216;29;20539;-79
2024/01/21 14:52:00;;;;;;;123.30;58.63;;;;;;;;;;10117210;29;20052;-78
2024/01/21 14:57:01;;;;;;;74.20;34.80;;;;;;;;;;10122128;29;20181;-78
2024/01/21 15:02:02;;;;;;;65.13;26.90;;;;;;;;;;10113580;29;20040;-79
2024/01/21 15:07:04;;;;;;;81.97;36.33;;;;;;;;;;10108005;29;20083;-79
2024/01/21 15:12:12;;;;;;;86.10;39.80;;;;;;;;;;10121775;29;20041;-79
2024/01/21 15:17:13;;;;;;;106.93;48.73;;;;;;;;;;10121785;29;20485;-79
2024/01/21 15:22:14;;;;;;;135.60;62.93;;;;;;;;;;10111951;29;20036;-77
2024/01/21 15:27:15;;;;;;;126.33;68.37;;;;;;;;;;10110800;29;20121;-78
2024/01/21 15:32:17;;;;;;;104.70;48.13;;;;;;;;;;10116604;29;20085;-79
2024/01/21 15:37:18;;;;;;;141.50;60.63;;;;;;;;;;10118640;29;20044;-78
2024/01/21 15:42:19;;;;;;;172.13;72.43;;;;;;;;;;10131461;29;20056;-79
2024/01/21 15:47:20;;;;;;;99.47;43.77;;;;;;;;;;10113487;29;20821;-79
2024/01/21 15:52:21;;;;;;;92.70;40.53;;;;;;;;;;10109060;29;20046;-78
2024/01/21 15:57:22;;;;;;;117.90;52.30;;;;;;;;;;10118766;29;20673;-80
2024/01/21 16:02:26;;;;;;;369.87;144.23;;;;;;;;;;10112321;29;20042;-77
2024/01/21 16:07:27;;;;;;;320.23;125.37;;;;;;;;;;10107477;29;20596;-77
2024/01/21 16:12:29;;;;;;;170.43;76.43;;;;;;;;;;10122750;29;20121;-78
2024/01/21 16:17:30;;;;;;;91.80;44.77;;;;;;;;;;10092279;29;20383;-80
2024/01/21 16:22:31;;;;;;;97.20;44.47;;;;;;;;;;10106167;29;20043;-78
2024/01/21 16:27:32;;;;;;;122.03;55.70;;;;;;;;;;10127133;29;20032;-79
2024/01/21 16:32:33;;;;;;;100.47;46.53;;;;;;;;;;10132585;29;20049;-79
2024/01/21 16:37:34;;;;;;;97.63;43.73;;;;;;;;;;10114316;29;20044;-80
2024/01/21 16:42:36;;;;;;;72.30;34.07;;;;;;;;;;10108799;29;20037;-79
2024/01/21 16:47:37;;;;;;;80.70;38.90;;;;;;;;;;10126894;29;20037;-78
2024/01/21 16:52:44;;;;;;;100.40;48.47;;;;;;;;;;10112889;29;20040;-80
2024/01/21 16:57:45;;;;;;;114.50;55.23;;;;;;;;;;10118848;29;20032;-79
2024/01/21 17:02:46;;;;;;;211.53;88.17;;;;;;;;;;10108563;29;20100;-78
2024/01/21 17:07:47;;;;;;;127.17;56.37;;;;;;;;;;10099924;29;20036;-79
2024/01/21 17:12:51;;;;;;;148.43;67.27;;;;;;;;;;10104451;29;20051;-79
2024/01/21 17:18:05;;;;;;;150.57;65.53;;;;;;;;;;10108093;29;20063;-78
2024/01/21 17:23:07;;;;;;;140.37;63.87;;;;;;;;;;10111592;29;20112;-83
2024/01/21 17:28:08;;;;;;;136.07;65.20;;;;;;;;;;10133041;29;20036;-79
2024/01/21 17:33:11;;;;;;;151.77;70.77;;;;;;;;;;10110523;29;20048;-79
2024/01/21 17:38:12;;;;;;;143.87;71.90;;;;;;;;;;10123662;29;20064;-80
2024/01/21 17:43:13;;;;;;;170.07;90.73;;;;;;;;;;10108299;29;20020;-80
2024/01/21 17:48:15;;;;;;;404.93;196.80;;;;;;;;;;10113608;29;20139;-81
2024/01/21 17:53:16;;;;;;;431.83;191.30;;;;;;;;;;10128910;29;20554;-79
2024/01/21 17:58:23;;;;;;;539.67;253.53;;;;;;;;;;10120309;29;20397;-79
2024/01/21 18:03:24;;;;;;;311.47;126.17;;;;;;;;;;10120539;29;20040;-80
2024/01/21 18:08:26;;;;;;;244.50;106.97;;;;;;;;;;10109424;29;20072;-80
2024/01/21 18:13:27;;;;;;;204.30;95.43;;;;;;;;;;10110916;29;20119;-81
2024/01/21 18:18:28;;;;;;;228.97;107.80;;;;;;;;;;10107136;29;20381;-79
2024/01/21 18:23:30;;;;;;;127.10;63.27;;;;;;;;;;10101110;29;20048;-78
2024/01/21 18:28:31;;;;;;;244.47;115.87;;;;;;;;;;10099668;29;20029;-78
2024/01/21 18:33:32;;;;;;;148.23;75.20;;;;;;;;;;10111578;29;20036;-79
2024/01/21 18:38:33;;;;;;;140.90;66.30;;;;;;;;;;10105568;29;20148;-78
2024/01/21 18:43:36;;;;;;;190.83;94.27;;;;;;;;;;10125441;29;20037;-81
2024/01/21 18:48:44;;;;;;;149.70;76.77;;;;;;;;;;10119899;29;20035;-78
2024/01/21 18:53:51;;;;;;;151.67;72.83;;;;;;;;;;10104705;29;20133;-80
2024/01/21 18:58:52;;;;;;;864.87;413.27;;;;;;;;;;10123237;29;20036;-79
2024/01/21 19:03:54;;;;;;;228.97;103.50;;;;;;;;;;10115700;29;20116;-80
2024/01/21 19:08:55;;;;;;;204.50;101.13;;;;;;;;;;10123316;29;20037;-78
2024/01/21 19:13:56;;;;;;;145.30;69.07;;;;;;;;;;10109901;29;20053;-79
2024/01/21 19:18:57;;;;;;;109.47;56.97;;;;;;;;;;10110169;29;20410;-80
2024/01/21 19:23:58;;;;;;;198.50;89.00;;;;;;;;;;10119654;29;20041;-78
2024/01/21 19:28:59;;;;;;;142.70;67.33;;;;;;;;;;10109220;29;20169;-78
2024/01/21 19:34:01;;;;;;;148.50;70.40;;;;;;;;;;10108755;29;20044;-81
2024/01/21 19:39:02;;;;;;;106.60;48.10;;;;;;;;;;10106591;29;20060;-79
2024/01/21 19:44:03;;;;;;;150.03;68.50;;;;;;;;;;10115677;29;20180;-80
2024/01/21 19:49:05;;;;;;;153.40;67.50;;;;;;;;;;10117235;29;20040;-79
2024/01/21 19:54:06;;;;;;;129.27;55.33;;;;;;;;;;10123823;29;20730;-80
2024/01/21 19:59:07;;;;;;;162.10;72.43;;;;;;;;;;10126036;29;20549;-80
2024/01/21 20:04:11;;;;;;;152.97;70.07;;;;;;;;;;10117402;29;20040;-80
2024/01/21 20:09:12;;;;;;;123.40;58.80;;;;;;;;;;10114160;29;20032;-78
2024/01/21 20:14:13;;;;;;;110.90;50.03;;;;;;;;;;10126401;29;20041;-80
2024/01/21 20:19:14;;;;;;;109.93;49.47;;;;;;;;;;10121821;29;20147;-79
2024/01/21 20:24:15;;;;;;;86.17;40.57;;;;;;;;;;10124805;29;20076;-79
2024/01/21 20:29:16;;;;;;;120.77;50.83;;;;;;;;;;10125637;29;20176;-79
2024/01/21 20:34:17;;;;;;;104.30;45.10;;;;;;;;;;10122545;29;20393;-79
2024/01/21 20:39:19;;;;;;;97.90;42.87;;;;;;;;;;10121095;29;20064;-81
2024/01/21 20:44:23;;;;;;;65.63;28.43;;;;;;;;;;10108733;29;20575;-80
2024/01/21 20:49:24;;;;;;;64.43;27.93;;;;;;;;;;10117318;29;20044;-79
2024/01/21 20:54:27;;;;;;;63.53;26.70;;;;;;;;;;10123083;29;20052;-78
2024/01/21 20:59:28;;;;;;;63.20;31.50;;;;;;;;;;10124278;29;20037;-81
2024/01/21 21:04:30;;;;;;;64.07;27.73;;;;;;;;;;10114870;29;20125;-78
2024/01/21 21:09:31;;;;;;;46.00;19.80;;;;;;;;;;10120379;29;20568;-78
2024/01/21 21:14:43;;;;;;;38.67;17.50;;;;;;;;;;10121358;29;20518;-78
2024/01/21 21:19:44;;;;;;;34.43;14.57;;;;;;;;;;10120661;29;20052;-80
2024/01/21 21:24:45;;;;;;;36.23;16.13;;;;;;;;;;10113429;29;20041;-79
2024/01/21 21:29:47;;;;;;;35.23;14.87;;;;;;;;;;10117954;29;20049;-79
2024/01/21 21:34:48;;;;;;;31.50;14.30;;;;;;;;;;10113987;29;20043;-78
2024/01/21 21:39:49;;;;;;;27.03;12.40;;;;;;;;;;10118607;29;20072;-80
2024/01/21 21:44:57;;;;;;;30.10;11.97;;;;;;;;;;10112428;29;20181;-78
2024/01/21 21:49:58;;;;;;;29.47;12.27;;;;;;;;;;10110456;29;20055;-78
2024/01/21 21:54:59;;;;;;;32.37;13.20;;;;;;;;;;10119194;29;20052;-78
2024/01/21 22:00:01;;;;;;;31.17;13.67;;;;;;;;;;10115717;29;20064;-79
2024/01/21 22:05:02;;;;;;;31.93;12.97;;;;;;;;;;10117772;29;20035;-79
2024/01/21 22:10:04;;;;;;;31.40;13.17;;;;;;;;;;10115285;29;20048;-78
2024/01/21 22:15:05;;;;;;;41.13;15.93;;;;;;;;;;10106934;29;20470;-80
2024/01/21 22:20:07;;;;;;;48.07;22.10;;;;;;;;;;10119914;29;20147;-79
2024/01/21 22:25:08;;;;;;;123.27;44.03;;;;;;;;;;10107377;29;20563;-79
2024/01/21 22:30:09;;;;;;;218.90;83.07;;;;;;;;;;10115803;29;20123;-78
2024/01/21 22:35:10;;;;;;;103.87;46.90;;;;;;;;;;10112291;29;20107;-78
2024/01/21 22:40:11;;;;;;;91.67;40.67;;;;;;;;;;10110101;29;20135;-79
2024/01/21 22:45:13;;;;;;;79.47;34.50;;;;;;;;;;10102324;29;20897;-78
2024/01/21 22:50:14;;;;;;;54.67;23.80;;;;;;;;;;10116770;29;20685;-79
2024/01/21 22:55:15;;;;;;;49.23;20.80;;;;;;;;;;10112059;29;20123;-79
2024/01/21 23:00:21;;;;;;;49.93;20.80;;;;;;;;;;10114813;29;20068;-78
2024/01/21 23:05:22;;;;;;;;;;;;;;;;;;10119530;29;20119;-80
2024/01/21 23:10:23;;;;;;;41.63;16.90;;;;;;;;;;10112832;29;19975;-79
2024/01/21 23:15:24;;;;;;;36.17;14.97;;;;;;;;;;10107763;29;20486;-79
2024/01/21 23:20:25;;;;;;;37.63;15.13;;;;;;;;;;10114338;29;20040;-80
2024/01/21 23:25:26;;;;;;;37.33;16.10;;;;;;;;;;10120963;29;20095;-78
2024/01/21 23:30:27;;;;;;;36.67;14.70;;;;;;;;;;10093197;29;20048;-80
2024/01/21 23:35:28;;;;;;;37.27;14.33;;;;;;;;;;10117559;29;20123;-79
2024/01/21 23:40:29;;;;;;;31.10;15.27;;;;;;;;;;10113978;29;20483;-79
2024/01/21 23:45:30;;;;;;;32.23;11.90;;;;;;;;;;10118094;29;20033;-80
2024/01/21 23:50:32;;;;;;;25.13;10.53;;;;;;;;;;10127357;29;20036;-80
2024/01/21 23:55:39;;;;;;;26.30;11.30;;;;;;;;;;10113371;29;20038;-79
